createdAt,value
2018-08-31T00:01:20.558Z,8.80
2018-08-31T00:04:57.540Z,10.10
2018-08-31T00:07:43.270Z,9.80
2018-08-31T00:12:24.075Z,9.47
2018-08-31T00:14:52.363Z,9.47
2018-08-31T00:17:20.548Z,9.80
2018-08-31T00:19:48.757Z,8.80
2018-08-31T00:22:16.932Z,8.43
2018-08-31T00:26:02.468Z,9.73
2018-08-31T00:28:41.746Z,8.70
2018-08-31T00:32:19.092Z,7.93
2018-08-31T00:35:10.237Z,9.10
2018-08-31T00:40:26.189Z,9.40
2018-08-31T00:45:13.137Z,10.60
2018-08-31T00:47:41.769Z,9.60
2018-08-31T00:50:09.928Z,9.17
2018-08-31T00:52:38.149Z,8.53
2018-08-31T00:55:06.960Z,7.37
2018-08-31T00:57:35.181Z,7.87
2018-08-31T01:00:03.445Z,8.60
2018-08-31T01:02:31.661Z,9.47
2018-08-31T01:04:59.814Z,9.50
2018-08-31T01:07:28.032Z,9.20
2018-08-31T01:09:56.217Z,9.20
2018-08-31T01:12:24.431Z,9.53
2018-08-31T01:14:52.648Z,10.63
2018-08-31T01:17:20.844Z,10.33
2018-08-31T01:19:49.045Z,9.80
2018-08-31T01:22:17.356Z,10.13
2018-08-31T01:24:45.565Z,10.07
2018-08-31T01:27:13.777Z,11.60
2018-08-31T01:29:41.969Z,10.37
2018-08-31T01:32:10.713Z,8.50
2018-08-31T01:34:38.972Z,10.20
2018-08-31T01:37:07.212Z,9.97
2018-08-31T01:39:35.483Z,10.83
2018-08-31T01:42:03.865Z,9.90
2018-08-31T01:44:32.065Z,10.03
2018-08-31T01:47:00.556Z,11.13
2018-08-31T01:49:28.722Z,11.70
2018-08-31T01:51:56.912Z,11.37
2018-08-31T01:54:25.090Z,12.47
2018-08-31T01:56:53.372Z,11.10
2018-08-31T01:59:21.548Z,10.23
2018-08-31T02:01:49.765Z,11.77
2018-08-31T02:04:18.010Z,9.53
2018-08-31T02:06:46.280Z,12.67
2018-08-31T02:09:18.072Z,10.47
2018-08-31T02:11:47.229Z,10.57
2018-08-31T02:14:15.485Z,11.47
2018-08-31T02:16:43.728Z,11.70
2018-08-31T02:19:11.941Z,12.50
2018-08-31T02:21:40.112Z,12.07
2018-08-31T02:24:08.335Z,11.90
2018-08-31T02:26:36.542Z,11.37
2018-08-31T02:29:04.834Z,11.70
2018-08-31T02:31:33.034Z,13.80
2018-08-31T02:34:01.252Z,14.03
2018-08-31T02:36:29.503Z,12.70
2018-08-31T02:38:57.721Z,14.67
2018-08-31T02:41:25.885Z,13.60
2018-08-31T02:43:54.181Z,12.17
2018-08-31T02:46:22.849Z,13.50
2018-08-31T02:48:52.149Z,13.17
2018-08-31T02:51:20.805Z,13.57
2018-08-31T02:53:49.021Z,11.67
2018-08-31T02:56:17.288Z,11.07
2018-08-31T02:58:45.512Z,13.30
2018-08-31T03:01:13.724Z,13.73
2018-08-31T03:03:41.917Z,14.70
2018-08-31T03:06:10.085Z,12.67
2018-08-31T03:08:38.398Z,14.07
2018-08-31T03:11:06.626Z,13.90
2018-08-31T03:13:34.878Z,13.73
2018-08-31T03:16:03.182Z,14.53
2018-08-31T03:18:31.452Z,12.40
2018-08-31T03:20:59.636Z,12.60
2018-08-31T03:23:27.922Z,12.07
2018-08-31T03:25:56.105Z,12.67
2018-08-31T03:28:24.329Z,13.80
2018-08-31T03:30:52.505Z,14.63
2018-08-31T03:33:20.709Z,14.00
2018-08-31T03:35:48.916Z,13.50
2018-08-31T03:38:17.101Z,14.20
2018-08-31T03:40:45.333Z,13.90
2018-08-31T03:43:13.554Z,12.77
2018-08-31T03:45:41.748Z,13.80
2018-08-31T03:48:09.920Z,15.00
2018-08-31T03:50:38.119Z,11.77
2018-08-31T03:53:06.312Z,13.80
2018-08-31T03:55:34.514Z,13.40
2018-08-31T03:58:02.675Z,14.30
2018-08-31T04:00:30.944Z,12.60
2018-08-31T04:02:59.122Z,15.73
2018-08-31T04:05:27.324Z,13.93
2018-08-31T04:07:55.511Z,13.17
2018-08-31T04:10:23.727Z,13.67
2018-08-31T04:12:51.914Z,14.10
2018-08-31T04:15:20.160Z,13.23
2018-08-31T04:17:48.342Z,14.67
2018-08-31T04:20:16.552Z,15.50
2018-08-31T04:22:44.724Z,16.40
2018-08-31T04:25:12.989Z,12.87
2018-08-31T04:27:41.181Z,14.33
2018-08-31T04:30:09.416Z,13.13
2018-08-31T04:32:37.588Z,16.97
2018-08-31T04:35:06.135Z,15.10
2018-08-31T04:37:34.445Z,17.03
2018-08-31T04:40:03.242Z,16.57
2018-08-31T04:42:31.432Z,16.83
2018-08-31T04:44:59.674Z,14.93
2018-08-31T04:47:27.873Z,16.90
2018-08-31T04:49:56.097Z,15.10
2018-08-31T04:52:24.297Z,13.30
2018-08-31T04:54:52.518Z,15.40
2018-08-31T04:57:20.727Z,16.90
2018-08-31T04:59:48.900Z,15.57
2018-08-31T05:02:17.098Z,19.90
2018-08-31T05:04:45.276Z,17.97
2018-08-31T05:07:13.530Z,19.57
2018-08-31T05:09:41.719Z,16.10
2018-08-31T05:12:09.986Z,18.97
2018-08-31T05:14:38.250Z,21.63
2018-08-31T05:17:06.469Z,18.57
2018-08-31T05:19:34.649Z,19.90
2018-08-31T05:22:02.877Z,20.70
2018-08-31T05:24:31.073Z,21.13
2018-08-31T05:26:59.290Z,19.60
2018-08-31T05:29:27.532Z,16.20
2018-08-31T05:31:55.766Z,20.07
2018-08-31T05:34:24.045Z,19.40
2018-08-31T05:36:52.271Z,19.10
2018-08-31T05:39:20.586Z,21.60
2018-08-31T05:41:48.816Z,19.87
2018-08-31T05:44:16.997Z,19.33
2018-08-31T05:46:45.205Z,21.80
2018-08-31T05:49:13.379Z,23.87
2018-08-31T05:51:41.585Z,21.73
2018-08-31T05:54:09.824Z,24.30
2018-08-31T05:56:38.095Z,27.30
2018-08-31T05:59:06.289Z,25.53
2018-08-31T06:01:34.546Z,23.17
2018-08-31T06:04:02.746Z,23.47
2018-08-31T06:06:30.981Z,22.93
2018-08-31T06:08:59.177Z,21.83
2018-08-31T06:11:27.405Z,23.70
2018-08-31T06:14:02.170Z,23.63
2018-08-31T06:16:30.423Z,24.70
2018-08-31T06:18:58.592Z,23.13
2018-08-31T06:21:26.797Z,24.30
2018-08-31T06:23:55.009Z,25.37
2018-08-31T06:26:23.228Z,24.93
2018-08-31T06:28:51.442Z,28.50
2018-08-31T06:31:19.665Z,23.33
2018-08-31T06:33:47.982Z,23.63
2018-08-31T06:36:16.152Z,27.87
2018-08-31T06:38:44.372Z,27.77
2018-08-31T06:41:12.549Z,26.87
2018-08-31T06:43:40.760Z,26.03
2018-08-31T06:46:08.961Z,26.63
2018-08-31T06:48:37.165Z,25.07
2018-08-31T06:51:05.348Z,24.60
2018-08-31T06:53:33.570Z,26.93
2018-08-31T06:56:01.740Z,28.40
2018-08-31T06:58:29.962Z,24.80
2018-08-31T07:00:58.145Z,24.00
2018-08-31T07:03:26.358Z,27.00
2018-08-31T07:05:54.528Z,24.73
2018-08-31T07:08:22.765Z,26.10
2018-08-31T07:10:50.946Z,24.20
2018-08-31T07:13:19.169Z,26.40
2018-08-31T07:15:47.380Z,24.27
2018-08-31T07:18:15.605Z,25.73
2018-08-31T07:20:43.791Z,23.87
2018-08-31T07:23:12.009Z,24.53
2018-08-31T07:25:40.201Z,24.63
2018-08-31T07:28:08.420Z,23.30
2018-08-31T07:30:36.588Z,25.87
2018-08-31T07:33:04.857Z,21.50
2018-08-31T07:35:33.081Z,24.33
2018-08-31T07:38:01.445Z,23.90
2018-08-31T07:40:29.629Z,22.40
2018-08-31T07:42:57.845Z,25.13
2018-08-31T07:45:26.122Z,23.70
2018-08-31T07:47:54.380Z,23.17
2018-08-31T07:50:22.554Z,22.07
2018-08-31T07:52:50.747Z,21.70
2018-08-31T07:55:18.973Z,20.27
2018-08-31T07:57:47.185Z,25.07
2018-08-31T08:00:15.429Z,22.07
2018-08-31T08:02:43.629Z,24.30
2018-08-31T08:05:11.957Z,26.67
2018-08-31T08:07:40.190Z,20.50
2018-08-31T08:10:08.506Z,27.20
2018-08-31T08:12:36.730Z,24.70
2018-08-31T08:15:05.118Z,25.10
2018-08-31T08:17:33.533Z,26.10
2018-08-31T08:20:01.801Z,25.77
2018-08-31T08:22:30.021Z,27.63
2018-08-31T08:24:58.238Z,25.30
2018-08-31T08:27:26.429Z,28.00
2018-08-31T08:29:54.783Z,26.67
2018-08-31T08:32:22.997Z,26.23
2018-08-31T08:34:51.209Z,25.83
2018-08-31T08:37:19.429Z,23.60
2018-08-31T08:39:47.785Z,25.83
2018-08-31T08:42:15.987Z,25.93
2018-08-31T08:44:44.323Z,25.57
2018-08-31T08:47:12.553Z,24.80
2018-08-31T08:49:40.780Z,25.80
2018-08-31T08:52:08.990Z,22.87
2018-08-31T08:54:37.249Z,25.37
2018-08-31T08:57:05.477Z,23.50
2018-08-31T08:59:33.752Z,21.83
2018-08-31T09:02:01.973Z,24.43
2018-08-31T09:04:30.205Z,24.77
2018-08-31T09:06:58.417Z,25.07
2018-08-31T09:09:26.720Z,27.37
2018-08-31T09:11:54.962Z,25.03
2018-08-31T09:14:23.188Z,25.37
2018-08-31T09:16:51.522Z,25.50
2018-08-31T09:19:19.853Z,27.57
2018-08-31T09:21:48.221Z,24.97
2018-08-31T09:24:16.476Z,26.50
2018-08-31T09:26:44.726Z,28.57
2018-08-31T09:29:13.017Z,28.33
2018-08-31T09:31:41.356Z,30.37
2018-08-31T09:34:09.606Z,29.87
2018-08-31T09:36:37.948Z,33.17
2018-08-31T09:39:10.751Z,32.70
2018-08-31T09:41:39.107Z,32.87
2018-08-31T09:44:07.522Z,32.13
2018-08-31T09:46:35.750Z,32.67
2018-08-31T09:49:04.038Z,33.63
2018-08-31T09:51:32.300Z,31.53
2018-08-31T09:54:00.514Z,34.40
2018-08-31T09:56:28.677Z,31.27
2018-08-31T09:58:56.960Z,31.97
2018-08-31T10:01:30.761Z,30.47
2018-08-31T10:04:01.513Z,34.37
2018-08-31T10:06:30.790Z,35.90
2018-08-31T10:08:59.024Z,33.77
2018-08-31T10:11:27.443Z,34.73
2018-08-31T10:13:55.718Z,36.30
2018-08-31T10:16:24.374Z,37.47
2018-08-31T10:18:52.696Z,37.10
2018-08-31T10:21:20.955Z,37.23
2018-08-31T10:23:49.245Z,38.17
2018-08-31T10:26:17.479Z,37.60
2018-08-31T10:28:45.684Z,37.77
2018-08-31T10:31:13.930Z,36.90
2018-08-31T10:33:42.183Z,34.60
2018-08-31T10:36:10.375Z,31.13
2018-08-31T10:38:38.624Z,39.47
2018-08-31T10:41:07.150Z,37.90
2018-08-31T10:43:35.633Z,32.93
2018-08-31T10:46:03.881Z,35.80
2018-08-31T10:48:32.437Z,37.80
2018-08-31T10:51:01.038Z,35.50
2018-08-31T10:53:29.408Z,34.60
2018-08-31T10:55:57.585Z,37.27
2018-08-31T10:58:25.937Z,35.10
2018-08-31T11:00:54.188Z,33.67
2018-08-31T11:03:23.205Z,32.80
2018-08-31T11:05:51.408Z,37.57
2018-08-31T11:08:20.350Z,32.40
2018-08-31T11:10:48.621Z,30.77
2018-08-31T11:13:17.161Z,29.67
2018-08-31T11:15:45.677Z,30.43
2018-08-31T11:18:14.135Z,29.17
2018-08-31T11:20:42.469Z,31.63
2018-08-31T11:23:10.789Z,32.10
2018-08-31T11:25:39.032Z,30.77
2018-08-31T11:28:07.305Z,34.80
2018-08-31T11:30:35.574Z,31.67
2018-08-31T11:33:03.905Z,30.77
2018-08-31T11:35:32.137Z,29.87
2018-08-31T11:38:00.330Z,29.00
2018-08-31T11:40:28.553Z,30.03
2018-08-31T11:42:56.752Z,30.70
2018-08-31T11:45:25.048Z,25.90
2018-08-31T11:47:53.548Z,31.53
2018-08-31T11:50:21.789Z,28.57
2018-08-31T11:52:49.964Z,31.13
2018-08-31T11:55:18.258Z,32.53
2018-08-31T11:57:46.616Z,32.43
2018-08-31T12:00:14.926Z,32.80
2018-08-31T12:02:43.138Z,32.90
2018-08-31T12:05:11.412Z,32.67
2018-08-31T12:07:39.642Z,34.97
2018-08-31T12:10:07.881Z,31.50
2018-08-31T12:12:36.078Z,32.30
2018-08-31T12:15:04.494Z,28.60
2018-08-31T12:17:32.938Z,32.00
2018-08-31T12:20:01.172Z,29.63
2018-08-31T12:22:29.547Z,33.40
2018-08-31T12:24:57.804Z,33.17
2018-08-31T12:27:26.325Z,30.40
2018-08-31T12:29:54.821Z,32.70
2018-08-31T12:32:23.335Z,30.57
2018-08-31T12:34:51.929Z,31.90
2018-08-31T12:37:20.670Z,31.53
2018-08-31T12:39:48.957Z,32.60
2018-08-31T12:42:17.170Z,33.20
2018-08-31T12:44:45.442Z,32.20
2018-08-31T12:47:13.733Z,31.80
2018-08-31T12:49:41.965Z,29.83
2018-08-31T12:52:10.209Z,28.13
2018-08-31T12:54:38.472Z,28.50
2018-08-31T12:57:06.881Z,31.60
2018-08-31T12:59:35.082Z,30.70
2018-08-31T13:02:03.452Z,33.13
2018-08-31T13:04:31.909Z,30.33
2018-08-31T13:07:00.185Z,32.27
2018-08-31T13:09:28.386Z,32.37
2018-08-31T13:11:56.642Z,31.50
2018-08-31T13:14:24.924Z,33.20
2018-08-31T13:16:53.196Z,34.37
2018-08-31T13:19:21.859Z,33.87
2018-08-31T13:21:50.109Z,33.30
2018-08-31T13:24:18.345Z,30.93
2018-08-31T13:26:46.585Z,28.83
2018-08-31T13:29:14.828Z,28.47
2018-08-31T13:31:43.134Z,30.70
2018-08-31T13:34:11.390Z,28.47
2018-08-31T13:36:39.699Z,26.70
2018-08-31T13:39:08.810Z,30.50
2018-08-31T13:41:37.053Z,26.27
2018-08-31T13:44:05.328Z,26.87
2018-08-31T13:46:33.593Z,29.47
2018-08-31T13:49:01.822Z,28.13
2018-08-31T13:51:30.081Z,26.87
2018-08-31T13:53:58.293Z,29.50
2018-08-31T13:56:26.571Z,29.17
2018-08-31T13:58:54.767Z,27.57
2018-08-31T14:01:23.006Z,27.57
2018-08-31T14:03:51.217Z,26.97
2018-08-31T14:06:19.489Z,26.93
2018-08-31T14:08:47.714Z,24.97
2018-08-31T14:11:15.932Z,25.90
2018-08-31T14:13:44.149Z,24.47
2018-08-31T14:16:12.377Z,21.13
2018-08-31T14:18:40.605Z,22.30
2018-08-31T14:21:08.844Z,23.30
2018-08-31T14:23:37.102Z,22.20
2018-08-31T14:26:05.318Z,23.60
2018-08-31T14:28:33.626Z,24.20
2018-08-31T14:31:01.812Z,24.17
2018-08-31T14:33:30.253Z,23.53
2018-08-31T14:35:58.456Z,23.73
2018-08-31T14:38:26.744Z,24.90
2018-08-31T14:40:55.063Z,24.60
2018-08-31T14:43:23.432Z,25.93
2018-08-31T14:45:51.640Z,24.60
2018-08-31T14:48:19.872Z,26.40
2018-08-31T14:50:48.127Z,23.57
2018-08-31T14:53:16.681Z,24.77
2018-08-31T14:55:44.946Z,25.87
2018-08-31T14:58:13.639Z,23.70
2018-08-31T15:00:42.036Z,24.67
2018-08-31T15:03:10.282Z,29.40
2018-08-31T15:05:38.533Z,24.53
2018-08-31T15:08:06.753Z,22.80
2018-08-31T15:10:34.941Z,26.03
2018-08-31T15:13:03.190Z,24.30
2018-08-31T15:15:31.401Z,22.27
2018-08-31T15:17:59.688Z,21.80
2018-08-31T15:20:27.861Z,22.63
2018-08-31T15:22:56.181Z,22.20
2018-08-31T15:25:24.486Z,22.60
2018-08-31T15:27:52.760Z,22.87
2018-08-31T15:30:20.949Z,20.50
2018-08-31T15:32:49.143Z,24.20
2018-08-31T15:35:17.366Z,23.60
2018-08-31T15:37:45.561Z,22.90
2018-08-31T15:40:13.768Z,24.37
2018-08-31T15:42:42.120Z,23.90
2018-08-31T15:45:10.334Z,22.33
2018-08-31T15:47:38.522Z,22.50
2018-08-31T15:50:06.795Z,23.27
2018-08-31T15:52:35.024Z,22.83
2018-08-31T15:55:03.289Z,24.90
2018-08-31T15:57:31.491Z,23.53
2018-08-31T15:59:59.705Z,21.77
2018-08-31T16:02:27.970Z,22.60
2018-08-31T16:04:56.155Z,21.10
2018-08-31T16:07:24.332Z,24.70
2018-08-31T16:09:52.566Z,22.40
2018-08-31T16:12:20.756Z,21.33
2018-08-31T16:14:49.029Z,22.40
2018-08-31T16:17:17.236Z,23.03
2018-08-31T16:19:45.488Z,22.27
2018-08-31T16:22:13.686Z,24.80
2018-08-31T16:24:42.009Z,23.80
2018-08-31T16:27:10.288Z,24.43
2018-08-31T16:29:38.542Z,22.10
2018-08-31T16:32:06.747Z,22.90
2018-08-31T16:34:34.974Z,21.20
2018-08-31T16:37:03.209Z,23.73
2018-08-31T16:39:31.446Z,22.67
2018-08-31T16:41:59.631Z,20.60
2018-08-31T16:44:27.853Z,20.93
2018-08-31T16:46:56.047Z,22.53
2018-08-31T16:49:24.269Z,22.13
2018-08-31T16:51:52.466Z,22.63
2018-08-31T16:54:20.733Z,22.83
2018-08-31T16:56:48.973Z,22.60
2018-08-31T16:59:17.174Z,22.40
2018-08-31T17:01:45.421Z,21.37
2018-08-31T17:04:13.665Z,21.47
2018-08-31T17:06:41.925Z,22.63
2018-08-31T17:09:11.949Z,23.90
2018-08-31T17:11:40.475Z,21.03
2018-08-31T17:14:08.764Z,20.70
2018-08-31T17:16:37.289Z,22.93
2018-08-31T17:19:05.774Z,23.07
2018-08-31T17:21:33.996Z,22.97
2018-08-31T17:24:02.194Z,22.37
2018-08-31T17:26:35.880Z,23.80
2018-08-31T17:29:09.494Z,24.37
2018-08-31T17:31:43.341Z,25.03
2018-08-31T17:34:17.003Z,23.63
2018-08-31T17:36:50.822Z,23.90
2018-08-31T17:39:19.025Z,23.07
2018-08-31T17:41:47.264Z,22.63
2018-08-31T17:44:15.488Z,22.67
2018-08-31T17:46:43.738Z,21.30
2018-08-31T17:49:11.965Z,22.23
2018-08-31T17:51:40.288Z,17.90
2018-08-31T17:54:08.502Z,19.70
2018-08-31T17:56:36.736Z,20.10
2018-08-31T17:59:05.213Z,20.07
2018-08-31T18:01:33.442Z,18.53
2018-08-31T18:04:01.661Z,18.80
2018-08-31T18:06:29.909Z,18.60
2018-08-31T18:08:58.094Z,17.40
2018-08-31T18:11:26.349Z,17.93
2018-08-31T18:13:54.519Z,17.53
2018-08-31T18:16:22.750Z,16.97
2018-08-31T18:18:50.927Z,17.70
2018-08-31T18:21:19.198Z,16.90
2018-08-31T18:23:47.398Z,18.23
2018-08-31T18:26:15.589Z,18.10
2018-08-31T18:28:46.817Z,15.57
2018-08-31T18:31:15.027Z,15.40
2018-08-31T18:33:43.237Z,15.93
2018-08-31T18:36:11.419Z,16.23
2018-08-31T18:38:39.643Z,17.47
2018-08-31T18:41:07.821Z,17.90
2018-08-31T18:43:36.732Z,18.30
2018-08-31T18:46:04.981Z,17.27
2018-08-31T18:49:36.478Z,16.70
2018-08-31T18:52:04.680Z,17.90
2018-08-31T18:54:32.853Z,19.60
2018-08-31T18:57:01.078Z,18.67
2018-08-31T18:59:29.285Z,19.37
2018-08-31T19:01:58.425Z,21.00
2018-08-31T19:04:26.645Z,21.40
2018-08-31T19:06:54.828Z,19.57
2018-08-31T19:09:23.084Z,20.90
2018-08-31T19:11:51.257Z,21.83
2018-08-31T19:14:19.467Z,22.70
2018-08-31T19:16:47.644Z,20.47
2018-08-31T19:19:15.837Z,21.17
2018-08-31T19:21:44.043Z,20.53
2018-08-31T19:24:12.301Z,20.87
2018-08-31T19:26:40.497Z,20.10
2018-08-31T19:29:08.771Z,20.50
2018-08-31T19:31:37.005Z,21.37
2018-08-31T19:34:05.329Z,20.07
2018-08-31T19:36:33.649Z,23.53
2018-08-31T19:39:01.901Z,23.40
2018-08-31T19:41:30.252Z,22.80
2018-08-31T19:43:58.498Z,24.43
2018-08-31T19:46:26.702Z,25.10
2018-08-31T19:48:54.901Z,21.77
2018-08-31T19:51:23.060Z,22.80
2018-08-31T19:53:51.300Z,24.77
2018-08-31T19:56:19.509Z,29.70
2018-08-31T19:58:47.761Z,29.97
2018-08-31T20:01:15.960Z,29.90
2018-08-31T20:03:44.160Z,33.17
2018-08-31T20:06:12.402Z,30.10
2018-08-31T20:08:40.628Z,31.30
2018-08-31T20:11:09.724Z,33.77
2018-08-31T20:13:37.983Z,36.40
2018-08-31T20:16:06.171Z,35.60
2018-08-31T20:18:34.436Z,36.33
2018-08-31T20:21:02.656Z,35.67
2018-08-31T20:23:32.002Z,33.00
2018-08-31T20:26:00.209Z,35.17
2018-08-31T20:28:28.442Z,37.27
2018-08-31T20:30:56.674Z,36.80
2018-08-31T20:33:24.873Z,36.40
2018-08-31T20:35:53.085Z,38.27
2018-08-31T20:38:21.261Z,35.93
2018-08-31T20:40:49.510Z,34.43
2018-08-31T20:43:17.758Z,36.00
2018-08-31T20:45:45.925Z,39.40
2018-08-31T20:48:14.093Z,35.77
2018-08-31T20:53:08.772Z,39.03
2018-08-31T20:55:36.980Z,36.83
2018-08-31T20:58:05.274Z,37.53
2018-08-31T21:00:33.461Z,34.27
2018-08-31T21:03:01.630Z,35.20
2018-08-31T21:05:29.844Z,35.83
2018-08-31T21:07:58.016Z,36.53
2018-08-31T21:10:26.220Z,34.60
2018-08-31T21:12:54.440Z,34.30
2018-08-31T21:15:22.653Z,36.10
2018-08-31T21:17:50.826Z,32.50
2018-08-31T21:20:19.074Z,33.53
2018-08-31T21:22:47.253Z,34.50
2018-08-31T21:25:15.493Z,34.93
2018-08-31T21:27:43.704Z,32.40
2018-08-31T21:30:11.997Z,34.17
2018-08-31T21:32:40.163Z,31.90
2018-08-31T21:35:08.684Z,31.10
2018-08-31T21:37:37.703Z,32.90
2018-08-31T21:40:07.179Z,32.03
2018-08-31T21:42:35.941Z,31.90
2018-08-31T21:45:04.527Z,30.07
2018-08-31T21:47:33.213Z,30.43
2018-08-31T21:50:02.371Z,31.67
2018-08-31T21:52:31.045Z,28.87
2018-08-31T21:54:59.736Z,28.93
2018-08-31T21:57:28.371Z,28.67
2018-08-31T21:59:56.956Z,27.60
2018-08-31T22:02:25.691Z,30.80
2018-08-31T22:04:54.374Z,26.83
2018-08-31T22:07:22.979Z,28.67
2018-08-31T22:09:51.599Z,27.33
2018-08-31T22:12:20.288Z,23.83
2018-08-31T22:14:48.987Z,26.90
2018-08-31T22:17:17.205Z,26.20
2018-08-31T22:19:45.377Z,25.43
2018-08-31T22:22:13.617Z,25.47
2018-08-31T22:24:41.797Z,26.80
2018-08-31T22:27:10.017Z,25.97
2018-08-31T22:29:38.297Z,26.63
2018-08-31T22:32:06.605Z,24.93
2018-08-31T22:34:34.884Z,27.90
2018-08-31T22:37:03.096Z,26.17
2018-08-31T22:39:31.273Z,24.97
2018-08-31T22:41:59.496Z,24.90
2018-08-31T22:44:27.677Z,27.07
2018-08-31T22:46:55.891Z,25.40
2018-08-31T22:49:24.441Z,27.27
2018-08-31T22:51:52.656Z,27.53
2018-08-31T22:54:20.813Z,28.03
2018-08-31T22:56:49.072Z,26.13
2018-08-31T22:59:17.238Z,25.37
2018-08-31T23:01:45.437Z,29.90
2018-08-31T23:04:13.620Z,27.77
2018-08-31T23:06:41.896Z,29.00
2018-08-31T23:09:10.134Z,29.33
2018-08-31T23:11:38.301Z,27.70
2018-08-31T23:14:06.499Z,28.73
2018-08-31T23:16:41.274Z,28.40
2018-08-31T23:19:09.498Z,27.03
2018-08-31T23:21:37.686Z,29.23
2018-08-31T23:24:05.910Z,31.73
2018-08-31T23:26:34.085Z,31.60
2018-08-31T23:29:02.317Z,30.17
2018-08-31T23:31:35.530Z,29.47
2018-08-31T23:34:03.759Z,29.00
2018-08-31T23:36:31.969Z,28.60
2018-08-31T23:39:00.186Z,30.20
2018-08-31T23:41:28.362Z,28.83
2018-08-31T23:43:56.570Z,30.47
2018-08-31T23:46:24.737Z,31.80
2018-08-31T23:48:52.925Z,30.83
2018-08-31T23:51:21.101Z,29.33
2018-08-31T23:53:49.319Z,29.17
2018-08-31T23:56:17.484Z,30.17
2018-08-31T23:58:45.706Z,27.37
